sensor_id;sensor_type;location;lat;lon;timestamp;P1;durP1;ratioP1;P2;durP2;ratioP2
31095;SDS011;17749;51.962;8.560;2022-12-24T06:01:59;29.50;;;8.05;;
31095;SDS011;17749;51.962;8.560;2022-12-24T06:04:29;27.92;;;9.07;;
31095;SDS011;17749;51.962;8.560;2022-12-24T06:06:56;30.52;;;8.77;;
31095;SDS011;17749;51.962;8.560;2022-12-24T06:09:24;33.60;;;8.75;;
31095;SDS011;17749;51.962;8.560;2022-12-24T06:11:55;28.10;;;8.60;;
31095;SDS011;17749;51.962;8.560;2022-12-24T06:14:22;29.35;;;8.82;;
31095;SDS011;17749;51.962;8.560;2022-12-24T06:16:49;28.85;;;8.80;;
31095;SDS011;17749;51.962;8.560;2022-12-24T06:19:20;31.13;;;8.43;;
31095;SDS011;17749;51.962;8.560;2022-12-24T06:21:47;36.60;;;9.50;;
31095;SDS011;17749;51.962;8.560;2022-12-24T06:24:14;28.50;;;7.78;;
31095;SDS011;17749;51.962;8.560;2022-12-24T06:26:41;32.75;;;9.15;;
31095;SDS011;17749;51.962;8.560;2022-12-24T06:29:08;32.33;;;8.65;;
31095;SDS011;17749;51.962;8.560;2022-12-24T06:31:37;30.13;;;8.48;;
31095;SDS011;17749;51.962;8.560;2022-12-24T06:34:04;35.92;;;9.00;;
31095;SDS011;17749;51.962;8.560;2022-12-24T06:36:31;32.95;;;8.70;;
31095;SDS011;17749;51.962;8.560;2022-12-24T06:38:58;28.13;;;9.98;;
31095;SDS011;17749;51.962;8.560;2022-12-24T06:41:25;35.47;;;9.48;;
31095;SDS011;17749;51.962;8.560;2022-12-24T06:43:53;29.50;;;8.93;;
31095;SDS011;17749;51.962;8.560;2022-12-24T06:46:20;40.00;;;11.32;;
31095;SDS011;17749;51.962;8.560;2022-12-24T06:48:47;31.35;;;12.20;;
31095;SDS011;17749;51.962;8.560;2022-12-24T06:51:15;31.25;;;8.85;;
31095;SDS011;17749;51.962;8.560;2022-12-24T06:53:44;30.80;;;9.10;;
31095;SDS011;17749;51.962;8.560;2022-12-24T06:56:12;39.85;;;10.18;;
31095;SDS011;17749;51.962;8.560;2022-12-24T06:58:43;32.00;;;9.50;;
31095;SDS011;17749;51.962;8.560;2022-12-24T07:01:11;36.38;;;10.73;;
31095;SDS011;17749;51.962;8.560;2022-12-24T07:03:39;37.33;;;10.65;;
31095;SDS011;17749;51.962;8.560;2022-12-24T07:06:10;33.92;;;11.65;;
31095;SDS011;17749;51.962;8.560;2022-12-24T07:12:13;29.55;;;9.68;;
31095;SDS011;17749;51.962;8.560;2022-12-24T07:14:40;18.17;;;9.00;;
31095;SDS011;17749;51.962;8.560;2022-12-24T07:17:08;25.65;;;8.68;;
31095;SDS011;17749;51.962;8.560;2022-12-24T07:19:35;35.13;;;10.10;;
31095;SDS011;17749;51.962;8.560;2022-12-24T07:22:02;27.95;;;10.25;;
31095;SDS011;17749;51.962;8.560;2022-12-24T07:24:29;34.97;;;10.00;;
31095;SDS011;17749;51.962;8.560;2022-12-24T07:26:55;28.50;;;8.82;;
31095;SDS011;17749;51.962;8.560;2022-12-24T07:29:22;32.00;;;10.25;;
31095;SDS011;17749;51.962;8.560;2022-12-24T07:31:49;30.33;;;10.55;;
31095;SDS011;17749;51.962;8.560;2022-12-24T07:34:16;27.33;;;9.73;;
31095;SDS011;17749;51.962;8.560;2022-12-24T07:36:43;34.42;;;11.13;;
31095;SDS011;17749;51.962;8.560;2022-12-24T07:39:10;29.48;;;11.20;;
31095;SDS011;17749;51.962;8.560;2022-12-24T07:41:37;39.55;;;12.43;;
31095;SDS011;17749;51.962;8.560;2022-12-24T07:44:10;34.28;;;12.35;;
31095;SDS011;17749;51.962;8.560;2022-12-24T07:46:38;30.98;;;11.60;;
31095;SDS011;17749;51.962;8.560;2022-12-24T07:49:06;28.00;;;11.95;;
31095;SDS011;17749;51.962;8.560;2022-12-24T07:51:33;39.65;;;12.77;;
31095;SDS011;17749;51.962;8.560;2022-12-24T07:54:00;37.53;;;12.40;;
31095;SDS011;17749;51.962;8.560;2022-12-24T07:56:27;33.70;;;12.95;;
31095;SDS011;17749;51.962;8.560;2022-12-24T07:58:54;34.90;;;12.45;;
31095;SDS011;17749;51.962;8.560;2022-12-24T08:01:21;32.45;;;13.18;;
31095;SDS011;17749;51.962;8.560;2022-12-24T08:03:48;28.20;;;13.70;;
31095;SDS011;17749;51.962;8.560;2022-12-24T08:06:20;34.10;;;14.20;;
31095;SDS011;17749;51.962;8.560;2022-12-24T08:08:47;44.00;;;13.82;;
31095;SDS011;17749;51.962;8.560;2022-12-24T08:11:15;32.45;;;12.93;;
31095;SDS011;17749;51.962;8.560;2022-12-24T08:13:41;34.10;;;13.75;;
31095;SDS011;17749;51.962;8.560;2022-12-24T08:16:08;31.70;;;14.38;;
31095;SDS011;17749;51.962;8.560;2022-12-24T08:18:35;37.10;;;16.33;;
31095;SDS011;17749;51.962;8.560;2022-12-24T08:21:05;34.42;;;14.82;;
31095;SDS011;17749;51.962;8.560;2022-12-24T08:23:33;29.48;;;13.73;;
31095;SDS011;17749;51.962;8.560;2022-12-24T08:26:01;35.28;;;17.42;;
31095;SDS011;17749;51.962;8.560;2022-12-24T08:28:28;31.15;;;15.32;;
31095;SDS011;17749;51.962;8.560;2022-12-24T08:30:55;41.10;;;16.70;;
31095;SDS011;17749;51.962;8.560;2022-12-24T08:33:23;35.42;;;15.70;;
31095;SDS011;17749;51.962;8.560;2022-12-24T08:35:51;34.67;;;14.73;;
31095;SDS011;17749;51.962;8.560;2022-12-24T08:38:20;35.95;;;16.40;;
31095;SDS011;17749;51.962;8.560;2022-12-24T08:40:48;43.45;;;15.82;;
31095;SDS011;17749;51.962;8.560;2022-12-24T08:43:15;32.10;;;14.60;;
31095;SDS011;17749;51.962;8.560;2022-12-24T08:45:44;33.72;;;15.48;;
31095;SDS011;17749;51.962;8.560;2022-12-24T08:48:12;32.03;;;14.65;;
31095;SDS011;17749;51.962;8.560;2022-12-24T08:50:39;36.72;;;14.05;;
31095;SDS011;17749;51.962;8.560;2022-12-24T08:53:07;33.72;;;14.40;;
31095;SDS011;17749;51.962;8.560;2022-12-24T08:55:35;26.75;;;13.02;;
31095;SDS011;17749;51.962;8.560;2022-12-24T08:58:03;28.17;;;14.35;;
31095;SDS011;17749;51.962;8.560;2022-12-24T09:00:30;33.75;;;14.30;;
31095;SDS011;17749;51.962;8.560;2022-12-24T09:02:57;33.40;;;15.02;;
31095;SDS011;17749;51.962;8.560;2022-12-24T09:05:24;40.42;;;16.40;;
31095;SDS011;17749;51.962;8.560;2022-12-24T09:07:51;38.38;;;14.82;;
31095;SDS011;17749;51.962;8.560;2022-12-24T09:10:18;42.10;;;13.85;;
31095;SDS011;17749;51.962;8.560;2022-12-24T09:12:46;32.00;;;12.65;;
31095;SDS011;17749;51.962;8.560;2022-12-24T09:15:13;33.10;;;15.18;;
31095;SDS011;17749;51.962;8.560;2022-12-24T09:17:40;44.53;;;15.68;;
31095;SDS011;17749;51.962;8.560;2022-12-24T09:20:08;34.65;;;12.73;;
31095;SDS011;17749;51.962;8.560;2022-12-24T09:22:36;34.80;;;13.55;;
31095;SDS011;17749;51.962;8.560;2022-12-24T09:25:05;36.13;;;14.10;;
31095;SDS011;17749;51.962;8.560;2022-12-24T09:27:33;31.88;;;12.43;;
31095;SDS011;17749;51.962;8.560;2022-12-24T09:30:00;35.03;;;13.63;;
31095;SDS011;17749;51.962;8.560;2022-12-24T09:32:27;35.83;;;14.25;;
31095;SDS011;17749;51.962;8.560;2022-12-24T09:34:53;38.20;;;13.27;;
31095;SDS011;17749;51.962;8.560;2022-12-24T09:37:20;29.20;;;13.43;;
31095;SDS011;17749;51.962;8.560;2022-12-24T09:39:47;26.65;;;12.02;;
31095;SDS011;17749;51.962;8.560;2022-12-24T09:42:57;31.60;;;12.10;;
31095;SDS011;17749;51.962;8.560;2022-12-24T09:45:30;39.47;;;14.80;;
31095;SDS011;17749;51.962;8.560;2022-12-24T09:48:08;40.45;;;13.13;;
31095;SDS011;17749;51.962;8.560;2022-12-24T09:50:42;32.90;;;14.05;;
31095;SDS011;17749;51.962;8.560;2022-12-24T09:53:26;38.92;;;14.23;;
31095;SDS011;17749;51.962;8.560;2022-12-24T09:56:05;32.33;;;15.50;;
31095;SDS011;17749;51.962;8.560;2022-12-24T09:58:39;40.33;;;16.15;;
31095;SDS011;17749;51.962;8.560;2022-12-24T10:01:11;31.08;;;13.68;;
31095;SDS011;17749;51.962;8.560;2022-12-24T10:03:41;34.60;;;14.77;;
31095;SDS011;17749;51.962;8.560;2022-12-24T10:11:35;26.47;;;11.47;;
31095;SDS011;17749;51.962;8.560;2022-12-24T10:19:47;29.10;;;11.25;;
31095;SDS011;17749;51.962;8.560;2022-12-24T10:25:20;30.52;;;11.50;;
31095;SDS011;17749;51.962;8.560;2022-12-24T10:27:48;30.33;;;9.93;;
31095;SDS011;17749;51.962;8.560;2022-12-24T10:30:20;27.02;;;10.05;;
31095;SDS011;17749;51.962;8.560;2022-12-24T10:32:49;33.43;;;9.70;;
31095;SDS011;17749;51.962;8.560;2022-12-24T10:37:47;32.70;;;10.63;;
31095;SDS011;17749;51.962;8.560;2022-12-24T10:42:49;19.33;;;8.43;;
31095;SDS011;17749;51.962;8.560;2022-12-24T10:45:18;33.28;;;11.38;;
31095;SDS011;17749;51.962;8.560;2022-12-24T10:47:48;30.15;;;10.20;;
31095;SDS011;17749;51.962;8.560;2022-12-24T10:53:13;34.15;;;10.23;;
31095;SDS011;17749;51.962;8.560;2022-12-24T10:55:47;26.63;;;9.25;;
31095;SDS011;17749;51.962;8.560;2022-12-24T10:58:15;31.83;;;9.82;;
31095;SDS011;17749;51.962;8.560;2022-12-24T11:00:49;48.33;;;16.17;;
31095;SDS011;17749;51.962;8.560;2022-12-24T11:05:44;31.00;;;11.27;;
31095;SDS011;17749;51.962;8.560;2022-12-24T11:10:43;23.98;;;8.38;;
31095;SDS011;17749;51.962;8.560;2022-12-24T11:13:24;30.98;;;9.57;;
31095;SDS011;17749;51.962;8.560;2022-12-24T11:16:15;30.02;;;8.85;;
31095;SDS011;17749;51.962;8.560;2022-12-24T11:19:04;26.77;;;7.63;;
31095;SDS011;17749;51.962;8.560;2022-12-24T11:21:41;16.70;;;7.05;;
31095;SDS011;17749;51.962;8.560;2022-12-24T11:26:39;19.80;;;6.80;;
31095;SDS011;17749;51.962;8.560;2022-12-24T11:31:37;26.55;;;10.60;;
31095;SDS011;17749;51.962;8.560;2022-12-24T11:37:06;19.23;;;6.25;;
31095;SDS011;17749;51.962;8.560;2022-12-24T11:39:44;24.27;;;9.25;;
31095;SDS011;17749;51.962;8.560;2022-12-24T11:42:33;21.15;;;8.35;;
31095;SDS011;17749;51.962;8.560;2022-12-24T11:45:05;24.23;;;7.47;;
31095;SDS011;17749;51.962;8.560;2022-12-24T12:04:43;25.02;;;8.20;;
31095;SDS011;17749;51.962;8.560;2022-12-24T12:07:17;19.38;;;10.10;;
31095;SDS011;17749;51.962;8.560;2022-12-24T12:09:52;19.85;;;8.60;;
31095;SDS011;17749;51.962;8.560;2022-12-24T12:12:30;26.08;;;8.90;;
31095;SDS011;17749;51.962;8.560;2022-12-24T12:15:01;26.40;;;9.25;;
31095;SDS011;17749;51.962;8.560;2022-12-24T12:17:49;21.92;;;8.93;;
31095;SDS011;17749;51.962;8.560;2022-12-24T12:20:24;19.88;;;7.88;;
31095;SDS011;17749;51.962;8.560;2022-12-24T12:25:55;25.02;;;9.98;;
31095;SDS011;17749;51.962;8.560;2022-12-24T12:28:27;26.38;;;10.32;;
31095;SDS011;17749;51.962;8.560;2022-12-24T12:31:02;29.33;;;10.45;;
31095;SDS011;17749;51.962;8.560;2022-12-24T12:33:43;28.15;;;10.00;;
31095;SDS011;17749;51.962;8.560;2022-12-24T12:36:16;25.55;;;9.30;;
31095;SDS011;17749;51.962;8.560;2022-12-24T12:38:46;21.80;;;7.47;;
31095;SDS011;17749;51.962;8.560;2022-12-24T12:49:46;27.85;;;8.20;;
31095;SDS011;17749;51.962;8.560;2022-12-24T12:52:33;26.70;;;8.73;;
31095;SDS011;17749;51.962;8.560;2022-12-24T12:55:29;29.23;;;8.77;;
31095;SDS011;17749;51.962;8.560;2022-12-24T12:58:12;23.52;;;8.20;;
31095;SDS011;17749;51.962;8.560;2022-12-24T13:00:45;23.83;;;10.18;;
31095;SDS011;17749;51.962;8.560;2022-12-24T13:19:54;28.35;;;8.77;;
31095;SDS011;17749;51.962;8.560;2022-12-24T13:22:24;29.67;;;8.48;;
31095;SDS011;17749;51.962;8.560;2022-12-24T13:24:52;25.25;;;8.55;;
31095;SDS011;17749;51.962;8.560;2022-12-24T13:27:24;25.50;;;9.45;;
31095;SDS011;17749;51.962;8.560;2022-12-24T13:29:57;28.45;;;9.35;;
31095;SDS011;17749;51.962;8.560;2022-12-24T13:32:36;29.48;;;9.25;;
31095;SDS011;17749;51.962;8.560;2022-12-24T13:35:32;27.98;;;7.50;;
31095;SDS011;17749;51.962;8.560;2022-12-24T13:40:52;24.75;;;9.02;;
31095;SDS011;17749;51.962;8.560;2022-12-24T13:43:20;19.92;;;7.60;;
31095;SDS011;17749;51.962;8.560;2022-12-24T13:45:48;20.13;;;7.90;;
31095;SDS011;17749;51.962;8.560;2022-12-24T13:50:52;27.13;;;8.35;;
31095;SDS011;17749;51.962;8.560;2022-12-24T13:53:21;21.33;;;7.13;;
31095;SDS011;17749;51.962;8.560;2022-12-24T13:55:55;30.20;;;7.78;;
31095;SDS011;17749;51.962;8.560;2022-12-24T13:58:28;18.58;;;6.55;;
31095;SDS011;17749;51.962;8.560;2022-12-24T14:01:03;27.17;;;8.35;;
31095;SDS011;17749;51.962;8.560;2022-12-24T14:03:33;26.92;;;7.38;;
31095;SDS011;17749;51.962;8.560;2022-12-24T14:06:24;31.37;;;9.67;;
31095;SDS011;17749;51.962;8.560;2022-12-24T14:14:36;22.73;;;7.70;;
31095;SDS011;17749;51.962;8.560;2022-12-24T14:19:56;26.27;;;8.70;;
31095;SDS011;17749;51.962;8.560;2022-12-24T14:22:26;29.60;;;7.72;;
31095;SDS011;17749;51.962;8.560;2022-12-24T14:24:55;33.80;;;20.23;;
31095;SDS011;17749;51.962;8.560;2022-12-24T14:32:45;21.02;;;9.20;;
31095;SDS011;17749;51.962;8.560;2022-12-24T14:35:18;27.10;;;9.82;;
31095;SDS011;17749;51.962;8.560;2022-12-24T14:37:48;26.75;;;9.75;;
31095;SDS011;17749;51.962;8.560;2022-12-24T14:40:19;25.52;;;8.95;;
31095;SDS011;17749;51.962;8.560;2022-12-24T14:56:31;39.20;;;15.77;;
31095;SDS011;17749;51.962;8.560;2022-12-24T14:58:58;26.10;;;11.75;;
31095;SDS011;17749;51.962;8.560;2022-12-24T15:01:30;28.42;;;10.80;;
31095;SDS011;17749;51.962;8.560;2022-12-24T15:06:27;26.95;;;10.98;;
31095;SDS011;17749;51.962;8.560;2022-12-24T15:08:57;23.10;;;9.55;;
31095;SDS011;17749;51.962;8.560;2022-12-24T15:11:24;29.58;;;9.82;;
31095;SDS011;17749;51.962;8.560;2022-12-24T15:13:52;28.23;;;9.55;;
31095;SDS011;17749;51.962;8.560;2022-12-24T15:16:33;28.55;;;10.13;;
31095;SDS011;17749;51.962;8.560;2022-12-24T15:19:06;28.70;;;10.35;;
31095;SDS011;17749;51.962;8.560;2022-12-24T15:21:49;24.30;;;10.40;;
31095;SDS011;17749;51.962;8.560;2022-12-24T15:24:24;36.40;;;12.63;;
31095;SDS011;17749;51.962;8.560;2022-12-24T15:26:58;26.92;;;10.00;;
31095;SDS011;17749;51.962;8.560;2022-12-24T15:29:29;25.52;;;10.70;;
31095;SDS011;17749;51.962;8.560;2022-12-24T15:31:59;23.63;;;9.93;;
31095;SDS011;17749;51.962;8.560;2022-12-24T15:34:29;25.77;;;9.57;;
31095;SDS011;17749;51.962;8.560;2022-12-24T15:37:48;30.35;;;12.80;;
31095;SDS011;17749;51.962;8.560;2022-12-24T15:39:57;23.55;;;10.13;;
31095;SDS011;17749;51.962;8.560;2022-12-24T15:42:59;22.48;;;10.80;;
31095;SDS011;17749;51.962;8.560;2022-12-24T15:45:27;27.85;;;12.02;;
31095;SDS011;17749;51.962;8.560;2022-12-24T15:47:58;32.30;;;10.80;;
31095;SDS011;17749;51.962;8.560;2022-12-24T15:50:32;44.40;;;12.13;;
31095;SDS011;17749;51.962;8.560;2022-12-24T15:53:06;23.60;;;11.20;;
31095;SDS011;17749;51.962;8.560;2022-12-24T15:58:36;24.02;;;11.88;;
31095;SDS011;17749;51.962;8.560;2022-12-24T16:01:26;22.13;;;10.87;;
31095;SDS011;17749;51.962;8.560;2022-12-24T16:03:55;26.13;;;10.55;;
31095;SDS011;17749;51.962;8.560;2022-12-24T16:06:23;29.30;;;10.48;;
31095;SDS011;17749;51.962;8.560;2022-12-24T16:08:51;24.60;;;10.32;;
31095;SDS011;17749;51.962;8.560;2022-12-24T16:16:18;26.55;;;10.68;;
31095;SDS011;17749;51.962;8.560;2022-12-24T16:18:51;23.52;;;10.85;;
31095;SDS011;17749;51.962;8.560;2022-12-24T16:21:24;25.02;;;10.38;;
31095;SDS011;17749;51.962;8.560;2022-12-24T16:23:55;30.65;;;10.88;;
31095;SDS011;17749;51.962;8.560;2022-12-24T16:26:24;19.05;;;10.55;;
31095;SDS011;17749;51.962;8.560;2022-12-24T16:28:50;30.40;;;11.60;;
31095;SDS011;17749;51.962;8.560;2022-12-24T16:31:18;17.08;;;10.13;;
31095;SDS011;17749;51.962;8.560;2022-12-24T16:33:55;28.73;;;10.95;;
31095;SDS011;17749;51.962;8.560;2022-12-24T16:36:24;25.33;;;10.73;;
31095;SDS011;17749;51.962;8.560;2022-12-24T16:38:51;25.55;;;11.07;;
31095;SDS011;17749;51.962;8.560;2022-12-24T16:41:36;24.55;;;12.43;;
31095;SDS011;17749;51.962;8.560;2022-12-24T16:44:23;22.85;;;11.77;;
31095;SDS011;17749;51.962;8.560;2022-12-24T16:46:51;22.30;;;10.73;;
31095;SDS011;17749;51.962;8.560;2022-12-24T16:49:20;24.05;;;11.35;;
31095;SDS011;17749;51.962;8.560;2022-12-24T16:51:48;23.55;;;11.35;;
31095;SDS011;17749;51.962;8.560;2022-12-24T16:54:15;21.50;;;11.15;;
31095;SDS011;17749;51.962;8.560;2022-12-24T16:56:42;30.95;;;12.02;;
31095;SDS011;17749;51.962;8.560;2022-12-24T16:59:14;25.67;;;10.88;;
31095;SDS011;17749;51.962;8.560;2022-12-24T17:01:43;20.48;;;11.48;;
31095;SDS011;17749;51.962;8.560;2022-12-24T17:04:10;23.98;;;10.27;;
31095;SDS011;17749;51.962;8.560;2022-12-24T17:06:37;24.15;;;10.75;;
31095;SDS011;17749;51.962;8.560;2022-12-24T17:09:04;24.00;;;9.65;;
31095;SDS011;17749;51.962;8.560;2022-12-24T17:11:31;21.95;;;9.55;;
31095;SDS011;17749;51.962;8.560;2022-12-24T17:13:58;20.55;;;10.20;;
31095;SDS011;17749;51.962;8.560;2022-12-24T17:16:33;25.05;;;10.68;;
31095;SDS011;17749;51.962;8.560;2022-12-24T17:19:03;27.85;;;10.55;;
31095;SDS011;17749;51.962;8.560;2022-12-24T17:21:30;26.33;;;10.02;;
31095;SDS011;17749;51.962;8.560;2022-12-24T17:23:57;20.75;;;10.23;;
31095;SDS011;17749;51.962;8.560;2022-12-24T17:26:24;30.15;;;10.70;;
31095;SDS011;17749;51.962;8.560;2022-12-24T17:28:52;21.17;;;10.05;;
31095;SDS011;17749;51.962;8.560;2022-12-24T17:31:20;23.25;;;10.63;;
31095;SDS011;17749;51.962;8.560;2022-12-24T17:33:49;33.35;;;11.13;;
31095;SDS011;17749;51.962;8.560;2022-12-24T17:36:17;17.13;;;10.10;;
31095;SDS011;17749;51.962;8.560;2022-12-24T17:38:44;22.52;;;9.77;;
31095;SDS011;17749;51.962;8.560;2022-12-24T17:41:12;20.90;;;11.35;;
31095;SDS011;17749;51.962;8.560;2022-12-24T17:43:41;19.23;;;9.55;;
31095;SDS011;17749;51.962;8.560;2022-12-24T17:46:27;25.58;;;10.43;;
31095;SDS011;17749;51.962;8.560;2022-12-24T17:48:54;26.35;;;11.20;;
31095;SDS011;17749;51.962;8.560;2022-12-24T17:51:21;19.73;;;10.90;;
31095;SDS011;17749;51.962;8.560;2022-12-24T17:53:49;29.05;;;13.45;;
31095;SDS011;17749;51.962;8.560;2022-12-24T17:56:16;27.98;;;12.98;;
31095;SDS011;17749;51.962;8.560;2022-12-24T17:58:44;23.95;;;13.07;;
31095;SDS011;17749;51.962;8.560;2022-12-24T18:01:13;24.05;;;11.85;;
31095;SDS011;17749;51.962;8.560;2022-12-24T18:03:45;23.35;;;12.05;;
31095;SDS011;17749;51.962;8.560;2022-12-24T18:06:15;28.15;;;11.80;;
31095;SDS011;17749;51.962;8.560;2022-12-24T18:08:43;29.70;;;12.95;;
31095;SDS011;17749;51.962;8.560;2022-12-24T18:13:39;28.30;;;13.02;;
31095;SDS011;17749;51.962;8.560;2022-12-24T18:16:16;25.40;;;14.70;;
31095;SDS011;17749;51.962;8.560;2022-12-24T18:18:44;31.83;;;15.55;;
31095;SDS011;17749;51.962;8.560;2022-12-24T18:21:12;32.85;;;18.42;;
31095;SDS011;17749;51.962;8.560;2022-12-24T18:23:40;35.75;;;19.52;;
31095;SDS011;17749;51.962;8.560;2022-12-24T18:26:08;48.28;;;21.48;;
31095;SDS011;17749;51.962;8.560;2022-12-24T18:28:36;39.97;;;22.50;;
31095;SDS011;17749;51.962;8.560;2022-12-24T18:31:04;43.67;;;24.38;;
31095;SDS011;17749;51.962;8.560;2022-12-24T18:33:34;59.25;;;31.63;;
31095;SDS011;17749;51.962;8.560;2022-12-24T18:36:01;46.00;;;30.63;;
31095;SDS011;17749;51.962;8.560;2022-12-24T18:38:29;40.88;;;26.13;;
31095;SDS011;17749;51.962;8.560;2022-12-24T18:41:03;41.50;;;23.17;;
31095;SDS011;17749;51.962;8.560;2022-12-24T18:43:35;36.05;;;21.52;;
31095;SDS011;17749;51.962;8.560;2022-12-24T18:46:09;39.10;;;21.63;;
31095;SDS011;17749;51.962;8.560;2022-12-24T18:48:38;30.38;;;19.92;;
31095;SDS011;17749;51.962;8.560;2022-12-24T18:51:07;36.42;;;21.77;;
31095;SDS011;17749;51.962;8.560;2022-12-24T18:53:34;33.72;;;19.10;;
31095;SDS011;17749;51.962;8.560;2022-12-24T18:58:32;26.98;;;14.20;;
31095;SDS011;17749;51.962;8.560;2022-12-24T19:00:59;33.53;;;14.82;;
31095;SDS011;17749;51.962;8.560;2022-12-24T19:03:26;32.53;;;15.15;;
31095;SDS011;17749;51.962;8.560;2022-12-24T19:05:53;29.58;;;17.05;;
31095;SDS011;17749;51.962;8.560;2022-12-24T19:08:27;28.08;;;15.70;;
31095;SDS011;17749;51.962;8.560;2022-12-24T19:11:14;31.20;;;15.60;;
31095;SDS011;17749;51.962;8.560;2022-12-24T19:13:48;32.17;;;15.60;;
31095;SDS011;17749;51.962;8.560;2022-12-24T19:16:16;28.48;;;13.85;;
31095;SDS011;17749;51.962;8.560;2022-12-24T19:18:43;26.55;;;14.75;;
31095;SDS011;17749;51.962;8.560;2022-12-24T19:21:11;27.38;;;15.05;;
31095;SDS011;17749;51.962;8.560;2022-12-24T19:23:39;27.42;;;13.48;;
31095;SDS011;17749;51.962;8.560;2022-12-24T19:26:06;30.55;;;14.10;;
31095;SDS011;17749;51.962;8.560;2022-12-24T19:28:34;32.38;;;16.50;;
31095;SDS011;17749;51.962;8.560;2022-12-24T19:31:05;29.15;;;17.25;;
31095;SDS011;17749;51.962;8.560;2022-12-24T19:33:37;25.23;;;15.90;;
31095;SDS011;17749;51.962;8.560;2022-12-24T19:36:09;28.80;;;15.70;;
31095;SDS011;17749;51.962;8.560;2022-12-24T19:38:46;32.22;;;16.55;;
31095;SDS011;17749;51.962;8.560;2022-12-24T19:41:15;30.58;;;17.23;;
31095;SDS011;17749;51.962;8.560;2022-12-24T19:43:54;29.10;;;16.52;;
31095;SDS011;17749;51.962;8.560;2022-12-24T19:46:23;35.03;;;20.10;;
31095;SDS011;17749;51.962;8.560;2022-12-24T19:48:57;42.55;;;23.33;;
31095;SDS011;17749;51.962;8.560;2022-12-24T19:51:25;43.45;;;20.58;;
31095;SDS011;17749;51.962;8.560;2022-12-24T19:53:54;35.10;;;19.50;;
31095;SDS011;17749;51.962;8.560;2022-12-24T19:56:23;33.50;;;19.67;;
31095;SDS011;17749;51.962;8.560;2022-12-24T19:58:51;32.20;;;18.38;;
31095;SDS011;17749;51.962;8.560;2022-12-24T20:01:21;40.17;;;22.08;;
31095;SDS011;17749;51.962;8.560;2022-12-24T20:03:50;40.85;;;21.25;;
31095;SDS011;17749;51.962;8.560;2022-12-24T20:06:19;45.05;;;24.73;;
31095;SDS011;17749;51.962;8.560;2022-12-24T20:11:16;46.97;;;24.00;;
31095;SDS011;17749;51.962;8.560;2022-12-24T20:13:44;44.20;;;25.70;;
31095;SDS011;17749;51.962;8.560;2022-12-24T20:16:12;36.13;;;22.65;;
31095;SDS011;17749;51.962;8.560;2022-12-24T20:18:58;42.05;;;24.05;;
31095;SDS011;17749;51.962;8.560;2022-12-24T20:21:26;41.53;;;24.90;;
31095;SDS011;17749;51.962;8.560;2022-12-24T20:23:53;34.40;;;22.50;;
31095;SDS011;17749;51.962;8.560;2022-12-24T20:26:21;38.30;;;21.80;;
31095;SDS011;17749;51.962;8.560;2022-12-24T20:28:49;32.03;;;20.48;;
31095;SDS011;17749;51.962;8.560;2022-12-24T20:31:17;37.88;;;19.40;;
31095;SDS011;17749;51.962;8.560;2022-12-24T20:36:14;28.05;;;16.63;;
31095;SDS011;17749;51.962;8.560;2022-12-24T20:38:43;31.33;;;16.98;;
31095;SDS011;17749;51.962;8.560;2022-12-24T20:41:11;37.05;;;17.40;;
31095;SDS011;17749;51.962;8.560;2022-12-24T20:43:40;33.03;;;16.83;;
31095;SDS011;17749;51.962;8.560;2022-12-24T20:46:14;27.77;;;16.05;;
31095;SDS011;17749;51.962;8.560;2022-12-24T20:48:42;39.92;;;17.90;;
31095;SDS011;17749;51.962;8.560;2022-12-24T20:51:11;30.88;;;17.40;;
31095;SDS011;17749;51.962;8.560;2022-12-24T20:53:48;31.20;;;17.55;;
31095;SDS011;17749;51.962;8.560;2022-12-24T20:56:16;31.65;;;15.50;;
31095;SDS011;17749;51.962;8.560;2022-12-24T20:58:44;32.03;;;14.88;;
31095;SDS011;17749;51.962;8.560;2022-12-24T21:01:13;27.75;;;13.35;;
31095;SDS011;17749;51.962;8.560;2022-12-24T21:03:43;27.33;;;14.30;;
31095;SDS011;17749;51.962;8.560;2022-12-24T21:06:10;26.58;;;12.80;;
31095;SDS011;17749;51.962;8.560;2022-12-24T21:08:38;29.65;;;15.95;;
31095;SDS011;17749;51.962;8.560;2022-12-24T21:11:05;26.95;;;14.32;;
31095;SDS011;17749;51.962;8.560;2022-12-24T21:13:50;32.08;;;15.45;;
31095;SDS011;17749;51.962;8.560;2022-12-24T21:16:17;28.45;;;16.65;;
31095;SDS011;17749;51.962;8.560;2022-12-24T21:18:44;34.25;;;16.10;;
31095;SDS011;17749;51.962;8.560;2022-12-24T21:21:11;23.77;;;13.57;;
31095;SDS011;17749;51.962;8.560;2022-12-24T21:23:38;25.50;;;14.65;;
31095;SDS011;17749;51.962;8.560;2022-12-24T21:26:05;29.92;;;14.25;;
31095;SDS011;17749;51.962;8.560;2022-12-24T21:28:32;26.55;;;13.48;;
